Time;durP1;ratioP1;P1;durP2;ratioP2;P2;SDS_P1;SDS_P2;PMS_P1;PMS_P2;Temp;Humidity;BMP_temperature;BMP_pressure;BME280_temperature;BME280_humidity;BME280_pressure;Samples;Min_cycle;Max_cycle;Signal;HPM_P1;HPM_P2
2023/05/02 00:01:49;;;;;;;0.20;0.20;;;22.20;49.20;;;;;;6126854;29;19965;-53
2023/05/02 00:04:52;;;;;;;0.40;0.30;;;22.00;48.90;;;;;;6126432;29;20047;-54
2023/05/02 00:07:53;;;;;;;0.20;0.20;;;22.00;48.90;;;;;;6127091;29;20054;-55
2023/05/02 00:10:55;;;;;;;0.22;0.22;;;22.00;48.90;;;;;;6126852;29;20455;-54
2023/05/02 00:13:56;;;;;;;;;;;22.00;49.00;;;;;;6126895;29;20051;-54
2023/05/02 00:16:58;;;;;;;0.30;0.30;;;22.00;49.30;;;;;;6126451;29;19930;-54
2023/05/02 00:20:00;;;;;;;0.20;0.20;;;22.00;49.10;;;;;;6126741;29;20122;-54
2023/05/02 00:23:02;;;;;;;0.47;0.30;;;21.70;49.00;;;;;;6126451;29;20527;-53
2023/05/02 00:26:08;;;;;;;0.40;0.40;;;21.90;49.30;;;;;;6126548;29;20508;-54
2023/05/02 00:29:10;;;;;;;0.28;0.28;;;22.30;49.40;;;;;;6126652;29;20052;-53
2023/05/02 00:32:11;;;;;;;;;;;22.00;49.60;;;;;;6127068;29;20563;-55
2023/05/02 00:35:13;;;;;;;0.50;0.30;;;21.10;49.20;;;;;;6126239;29;19927;-54
2023/05/02 00:38:15;;;;;;;0.73;0.40;;;21.90;49.60;;;;;;6126460;29;20102;-54
2023/05/02 00:41:19;;;;;;;0.30;0.30;;;21.90;49.50;;;;;;6125179;29;20076;-53
2023/05/02 00:44:21;;;;;;;0.98;0.40;;;21.90;50.10;;;;;;6126021;29;20095;-54
2023/05/02 00:47:23;;;;;;;0.50;0.30;;;21.90;49.70;;;;;;6126460;29;20200;-54
2023/05/02 00:50:26;;;;;;;0.55;0.43;;;21.90;50.10;;;;;;6126003;29;20048;-54
2023/05/02 00:53:28;;;;;;;0.98;0.77;;;22.00;49.80;;;;;;6129197;29;20054;-53
2023/05/02 00:56:30;;;;;;;1.17;0.63;;;22.10;50.40;;;;;;6130519;29;20127;-53
2023/05/02 00:59:32;;;;;;;;;;;21.80;50.40;;;;;;6130962;29;20106;-53
2023/05/02 01:02:42;;;;;;;1.10;0.52;;;21.70;50.50;;;;;;6130142;29;20295;-53
2023/05/02 01:05:56;;;;;;;0.82;0.43;;;21.70;50.30;;;;;;6130386;29;20168;-52
2023/05/02 01:09:08;;;;;;;0.98;0.52;;;22.10;50.80;;;;;;6130969;29;20476;-44
2023/05/02 01:12:17;;;;;;;0.50;0.47;;;21.90;50.90;;;;;;6153255;23;20052;-52
2023/05/02 01:15:22;;;;;;;0.75;0.55;;;21.90;51.20;;;;;;6130569;29;20043;-51
2023/05/02 01:18:27;;;;;;;1.02;0.50;;;21.90;51.20;;;;;;6129461;29;20051;-51
2023/05/02 01:21:31;;;;;;;0.68;0.68;;;21.80;51.30;;;;;;6130070;29;20062;-52
2023/05/02 01:24:39;;;;;;;1.45;0.55;;;21.90;51.50;;;;;;6129770;29;20039;-52
2023/05/02 01:27:50;;;;;;;0.55;0.40;;;22.00;51.70;;;;;;6128416;29;20461;-50
2023/05/02 01:30:55;;;;;;;0.50;0.47;;;21.90;51.80;;;;;;6129797;29;20039;-50
2023/05/02 01:33:59;;;;;;;0.40;0.40;;;21.60;51.70;;;;;;6129930;29;20400;-52
2023/05/02 01:37:03;;;;;;;0.95;0.57;;;21.90;51.90;;;;;;6129436;29;20054;-52
2023/05/02 01:40:07;;;;;;;1.23;0.70;;;21.90;52.10;;;;;;6128238;29;20380;-53
2023/05/02 01:43:10;;;;;;;0.52;0.50;;;21.80;52.00;;;;;;6129456;29;20048;-51
2023/05/02 01:46:18;;;;;;;0.60;0.60;;;21.70;52.10;;;;;;6129110;29;20063;-51
2023/05/02 01:49:22;;;;;;;0.50;0.50;;;21.70;49.60;;;;;;6129689;29;20114;-53
2023/05/02 01:52:26;;;;;;;0.73;0.60;;;21.90;52.40;;;;;;6129528;29;20055;-51
2023/05/02 01:55:28;;;;;;;0.68;0.55;;;21.90;52.40;;;;;;6129275;29;20048;-51
2023/05/02 01:58:31;;;;;;;0.70;0.50;;;21.80;52.40;;;;;;6129383;29;20499;-52
2023/05/02 02:01:36;;;;;;;0.55;0.50;;;22.10;52.60;;;;;;6129293;29;20082;-53
2023/05/02 02:04:40;;;;;;;0.93;0.57;;;21.80;52.40;;;;;;6129016;29;20075;-53
2023/05/02 02:07:45;;;;;;;0.52;0.45;;;21.90;52.60;;;;;;6112591;29;20404;-51
2023/05/02 02:10:53;;;;;;;0.90;0.52;;;21.90;52.80;;;;;;6129146;29;20039;-54
2023/05/02 02:14:04;;;;;;;0.70;0.40;;;21.60;52.60;;;;;;6127762;29;20431;-53
2023/05/02 02:17:12;;;;;;;0.73;0.52;;;21.60;52.70;;;;;;6128804;29;20515;-53
2023/05/02 02:20:15;;;;;;;0.70;0.70;;;21.80;52.80;;;;;;6129720;29;20051;-49
2023/05/02 02:23:22;;;;;;;0.60;0.50;;;21.90;52.80;;;;;;6128891;29;20059;-52
2023/05/02 02:26:23;;;;;;;0.70;0.50;;;21.60;52.70;;;;;;6128608;29;20051;-52
2023/05/02 02:29:24;;;;;;;;;;;21.80;53.10;;;;;;6129320;29;20412;-51
2023/05/02 02:32:26;;;;;;;0.70;0.52;;;21.80;53.30;;;;;;6128697;29;19933;-51
2023/05/02 02:35:33;;;;;;;0.88;0.68;;;21.80;53.10;;;;;;6128521;29;20408;-49
2023/05/02 02:38:41;;;;;;;0.88;0.70;;;21.80;53.10;;;;;;6127277;29;20043;-52
2023/05/02 02:41:56;;;;;;;0.73;0.65;;;21.90;53.20;;;;;;6128535;29;20055;-53
2023/05/02 02:45:16;;;;;;;0.75;0.60;;;21.60;53.10;;;;;;6128352;29;20054;-51
2023/05/02 02:48:26;;;;;;;0.70;0.63;;;21.80;53.30;;;;;;6128170;29;20128;-53
2023/05/02 02:51:37;;;;;;;0.73;0.50;;;21.90;53.40;;;;;;6128377;29;20054;-53
2023/05/02 02:54:44;;;;;;;0.85;0.60;;;21.50;53.20;;;;;;6128306;29;20055;-52
2023/05/02 02:57:54;;;;;;;0.82;0.60;;;21.40;53.10;;;;;;6128000;29;20051;-48
2023/05/02 03:00:56;;;;;;;0.70;0.60;;;21.50;53.20;;;;;;6128313;29;20056;-53
2023/05/02 03:03:58;;;;;;;0.40;0.40;;;21.70;53.60;;;;;;6127972;29;20044;-52
2023/05/02 03:07:00;;;;;;;0.90;0.70;;;21.80;53.50;;;;;;6127930;29;20133;-52
2023/05/02 03:10:03;;;;;;;0.65;0.55;;;21.80;53.70;;;;;;6128161;29;20099;-50
2023/05/02 03:13:06;;;;;;;0.55;0.55;;;21.90;53.60;;;;;;6127772;29;20470;-52
2023/05/02 03:23:49;;;;;;;0.80;0.55;;;21.80;49.70;;;;;;6446334;27;20090;-54
2023/05/02 03:26:55;;;;;;;0.75;0.60;;;21.60;49.80;;;;;;6446236;27;20046;-54
2023/05/02 03:30:01;;;;;;;0.60;0.40;;;21.80;49.90;;;;;;6446847;27;20056;-51
2023/05/02 03:33:07;;;;;;;0.60;0.50;;;21.60;50.30;;;;;;6445884;27;20084;-54
2023/05/02 03:36:11;;;;;;;0.60;0.50;;;21.60;50.30;;;;;;6446119;27;20046;-56
2023/05/02 03:39:14;;;;;;;1.15;0.57;;;21.60;50.30;;;;;;6445933;27;20453;-54
2023/05/02 03:42:17;;;;;;;0.50;0.50;;;21.80;50.20;;;;;;6445733;27;20129;-54
2023/05/02 03:45:19;;;;;;;1.08;0.40;;;21.80;50.20;;;;;;6446014;27;20095;-53
2023/05/02 03:48:22;;;;;;;0.50;0.40;;;21.90;50.10;;;;;;6445775;27;20098;-55
2023/05/02 03:51:23;;;;;;;0.43;0.43;;;21.60;49.90;;;;;;6427063;27;20113;-53
2023/05/02 03:54:32;;;;;;;0.85;0.50;;;21.90;50.10;;;;;;6445883;27;20401;-55
2023/05/02 03:57:34;;;;;;;0.43;0.38;;;21.90;50.00;;;;;;6445555;27;20126;-55
2023/05/02 04:00:37;;;;;;;0.50;0.50;;;21.70;49.80;;;;;;6422524;27;20046;-54
2023/05/02 04:03:43;;;;;;;0.50;0.45;;;21.80;49.80;;;;;;6401322;27;20049;-54
2023/05/02 04:06:47;;;;;;;0.70;0.50;;;21.60;49.70;;;;;;6401540;27;20050;-55
2023/05/02 04:09:50;;;;;;;0.40;0.40;;;21.90;49.70;;;;;;6419199;27;20046;-54
2023/05/02 04:12:54;;;;;;;0.52;0.52;;;21.60;49.60;;;;;;6419367;27;20053;-53
2023/05/02 04:15:56;;;;;;;1.30;0.60;;;21.80;49.70;;;;;;6419116;27;20107;-54
2023/05/02 04:19:01;;;;;;;0.50;0.50;;;21.90;49.70;;;;;;6418931;27;20427;-53
2023/05/02 04:22:03;;;;;;;1.08;0.40;;;21.40;49.40;;;;;;6419266;27;20069;-50
2023/05/02 04:25:09;;;;;;;0.70;0.50;;;21.80;49.60;;;;;;6418990;27;20046;-53
2023/05/02 04:28:14;;;;;;;0.55;0.50;;;21.90;49.50;;;;;;6415060;27;20050;-53
2023/05/02 04:31:15;;;;;;;0.55;0.50;;;21.50;49.40;;;;;;6401824;27;20035;-54
2023/05/02 04:34:21;;;;;;;0.73;0.50;;;21.70;49.40;;;;;;6401560;27;20050;-54
2023/05/02 04:37:24;;;;;;;0.60;0.60;;;21.70;49.50;;;;;;6402054;27;20054;-54
2023/05/02 04:40:26;;;;;;;0.60;0.60;;;21.60;49.30;;;;;;6401214;27;20513;-54
2023/05/02 04:43:34;;;;;;;0.40;0.40;;;21.60;49.40;;;;;;6401515;27;20046;-53
2023/05/02 04:46:37;;;;;;;0.70;0.60;;;21.80;49.50;;;;;;6401268;27;20053;-54
2023/05/02 04:49:39;;;;;;;0.30;0.30;;;21.70;49.40;;;;;;6401029;27;20039;-54
2023/05/02 04:52:41;;;;;;;0.52;0.50;;;21.50;49.30;;;;;;6401342;27;20501;-53
2023/05/02 04:55:43;;;;;;;0.60;0.40;;;21.80;49.40;;;;;;6401169;27;20111;-54
2023/05/02 04:58:45;;;;;;;0.38;0.38;;;21.70;49.30;;;;;;6401187;27;20058;-54
2023/05/02 05:01:48;;;;;;;0.63;0.45;;;21.70;49.40;;;;;;6401167;27;20571;-53
2023/05/02 05:04:49;;;;;;;1.27;0.70;;;21.50;49.30;;;;;;6400983;27;20082;-54
2023/05/02 05:07:53;;;;;;;0.43;0.43;;;21.80;49.50;;;;;;6401412;27;20070;-54
2023/05/02 05:10:58;;;;;;;0.55;0.45;;;21.40;49.30;;;;;;6400280;27;20424;-54
2023/05/02 05:14:02;;;;;;;0.40;0.40;;;21.60;49.20;;;;;;6400795;27;20042;-53
2023/05/02 05:17:06;;;;;;;0.52;0.50;;;21.80;48.80;;;;;;6400468;27;20050;-53
2023/05/02 05:20:09;;;;;;;0.50;0.50;;;21.70;49.40;;;;;;6400992;27;20067;-53
2023/05/02 05:23:12;;;;;;;0.50;0.40;;;21.80;49.40;;;;;;6400939;27;20034;-54
2023/05/02 05:26:15;;;;;;;0.68;0.45;;;21.80;49.40;;;;;;6400396;27;20126;-54
2023/05/02 05:29:20;;;;;;;0.85;0.60;;;21.50;49.20;;;;;;6366261;27;20050;-52
2023/05/02 05:32:23;;;;;;;0.85;0.40;;;21.80;49.40;;;;;;6400594;27;20046;-54
2023/05/02 05:35:25;;;;;;;0.82;0.50;;;21.80;49.40;;;;;;6400949;27;20114;-52
2023/05/02 05:38:27;;;;;;;0.98;0.50;;;21.60;49.30;;;;;;6400452;27;20554;-54
2023/05/02 05:41:30;;;;;;;0.60;0.50;;;21.50;49.10;;;;;;6399455;27;20042;-54
2023/05/02 05:44:37;;;;;;;0.40;0.40;;;21.70;49.30;;;;;;6400048;27;20042;-54
2023/05/02 05:47:39;;;;;;;0.50;0.45;;;21.70;49.30;;;;;;6400261;27;20095;-53
2023/05/02 05:50:40;;;;;;;0.50;0.30;;;21.60;49.30;;;;;;6399989;27;20130;-53
2023/05/02 05:53:42;;;;;;;;;;;21.70;49.30;;;;;;6400195;27;20050;-54
2023/05/02 05:56:46;;;;;;;0.80;0.55;;;21.60;49.50;;;;;;6400034;27;20408;-53
2023/05/02 05:59:53;;;;;;;1.52;0.73;;;21.80;49.40;;;;;;6399967;27;20035;-54
2023/05/02 06:02:55;;;;;;;0.65;0.60;;;21.70;49.50;;;;;;6399462;27;20042;-54
2023/05/02 06:06:01;;;;;;;0.60;0.50;;;21.80;49.40;;;;;;6399431;27;20030;-54
2023/05/02 06:09:03;;;;;;;0.57;0.50;;;21.50;49.30;;;;;;6400023;27;20117;-52
2023/05/02 06:12:07;;;;;;;1.00;0.65;;;21.50;49.20;;;;;;6399321;27;20034;-54
2023/05/02 06:15:09;;;;;;;0.40;0.40;;;21.60;49.30;;;;;;6399090;27;20030;-54
2023/05/02 06:18:12;;;;;;;0.65;0.40;;;21.90;49.80;;;;;;6398802;27;20039;-53
2023/05/02 06:21:13;;;;;;;0.45;0.40;;;21.70;49.20;;;;;;6398715;27;20097;-52
2023/05/02 06:24:15;;;;;;;;;;;21.80;49.30;;;;;;6399150;27;20130;-53
2023/05/02 06:27:17;;;;;;;0.50;0.40;;;22.00;49.70;;;;;;6399517;27;19965;-53
2023/05/02 06:30:18;;;;;;;0.50;0.50;;;21.80;49.30;;;;;;6399358;27;20393;-53
2023/05/02 06:33:20;;;;;;;;;;;21.90;49.50;;;;;;6399490;27;20038;-54
2023/05/02 06:36:21;;;;;;;0.68;0.50;;;22.00;49.50;;;;;;6398936;27;19919;-53
2023/05/02 06:39:23;;;;;;;0.85;0.60;;;21.90;49.50;;;;;;6398518;27;20047;-53
2023/05/02 06:42:24;;;;;;;;;;;21.80;49.30;;;;;;6398818;27;20107;-53
2023/05/02 06:45:26;;;;;;;;;;;22.10;49.70;;;;;;6399152;27;19918;-53
2023/05/02 06:48:29;;;;;;;;;;;21.70;49.60;;;;;;6399278;27;19919;-53
2023/05/02 06:51:31;;;;;;;0.60;0.55;;;22.00;49.70;;;;;;6397994;27;19963;-52
2023/05/02 06:54:34;;;;;;;0.70;0.50;;;21.70;49.20;;;;;;6399211;27;20119;-53
2023/05/02 06:57:36;;;;;;;;;;;21.80;49.50;;;;;;6398680;27;20397;-53
2023/05/02 07:00:38;;;;;;;1.27;0.50;;;21.90;49.70;;;;;;6398215;27;19959;-54
2023/05/02 07:03:39;;;;;;;0.50;0.43;;;21.80;49.50;;;;;;6398197;27;20500;-54
2023/05/02 07:06:41;;;;;;;0.65;0.52;;;22.00;49.60;;;;;;6398327;27;20503;-54
2023/05/02 07:09:43;;;;;;;0.80;0.52;;;22.00;49.60;;;;;;6397543;27;20508;-54
2023/05/02 07:12:45;;;;;;;0.47;0.45;;;21.70;49.50;;;;;;6398268;27;20046;-54
2023/05/02 07:15:47;;;;;;;0.82;0.60;;;22.00;49.80;;;;;;6398235;27;20048;-54
2023/05/02 07:18:48;;;;;;;;;;;21.80;49.70;;;;;;6398151;27;20057;-53
2023/05/02 07:21:49;;;;;;;0.77;0.50;;;21.90;49.80;;;;;;6398069;27;20381;-54
2023/05/02 07:24:57;;;;;;;0.50;0.45;;;21.80;49.50;;;;;;6397912;27;20042;-53
2023/05/02 07:28:00;;;;;;;1.60;0.50;;;21.50;49.60;;;;;;6397447;27;20053;-53
2023/05/02 07:31:02;;;;;;;0.60;0.60;;;21.90;49.50;;;;;;6396079;27;20040;-52
2023/05/02 07:34:07;;;;;;;0.90;0.50;;;22.10;49.60;;;;;;6398160;27;20038;-54
2023/05/02 07:37:10;;;;;;;1.63;0.55;;;22.10;49.50;;;;;;6398040;27;20042;-54
2023/05/02 07:40:12;;;;;;;0.77;0.52;;;22.20;49.60;;;;;;6397640;27;20046;-52
2023/05/02 07:43:15;;;;;;;0.77;0.60;;;22.10;49.30;;;;;;6397223;27;20042;-54
2023/05/02 07:46:16;;;;;;;0.60;0.60;;;21.90;49.20;;;;;;6398300;27;20043;-52
2023/05/02 07:49:18;;;;;;;;;;;22.10;49.20;;;;;;6398069;27;20450;-52
2023/05/02 07:52:21;;;;;;;0.55;0.50;;;22.20;49.50;;;;;;6396851;27;20285;-52
2023/05/02 07:55:26;;;;;;;0.55;0.40;;;22.20;49.30;;;;;;6397721;27;20054;-54
2023/05/02 07:58:31;;;;;;;3.42;0.60;;;22.00;49.10;;;;;;6397123;27;20043;-53
2023/05/02 08:01:32;;;;;;;0.85;0.50;;;22.00;49.10;;;;;;6397354;27;20043;-50
2023/05/02 08:04:34;;;;;;;0.77;0.60;;;22.10;49.10;;;;;;6400322;27;20045;-54
2023/05/02 08:07:36;;;;;;;2.15;0.88;;;22.20;49.10;;;;;;6401365;27;20118;-52
2023/05/02 08:10:38;;;;;;;0.75;0.40;;;22.30;49.10;;;;;;6401493;27;20038;-51
2023/05/02 08:13:40;;;;;;;;;;;22.20;49.00;;;;;;6402038;27;20035;-51
2023/05/02 08:16:41;;;;;;;;;;;22.40;49.20;;;;;;6401573;27;20297;-51
2023/05/02 08:19:45;;;;;;;0.47;0.40;;;22.20;49.10;;;;;;6400931;27;20305;-51
2023/05/02 08:22:47;;;;;;;;;;;22.20;48.90;;;;;;6401953;27;20050;-51
2023/05/02 08:25:48;;;;;;;0.50;0.40;;;22.20;49.20;;;;;;6401621;27;19919;-53
2023/05/02 08:28:51;;;;;;;;;;;22.30;48.80;;;;;;6401702;27;20042;-52
2023/05/02 08:31:52;;;;;;;0.93;0.63;;;22.10;48.90;;;;;;6382754;27;19926;-52
2023/05/02 08:34:55;;;;;;;1.00;0.57;;;22.20;48.70;;;;;;6401556;27;20050;-51
2023/05/02 08:37:56;;;;;;;0.77;0.50;;;22.40;48.80;;;;;;6401268;27;20038;-52
2023/05/02 08:40:59;;;;;;;0.40;0.40;;;22.50;49.60;;;;;;6401274;27;20459;-51
2023/05/02 08:44:06;;;;;;;0.65;0.40;;;22.20;48.60;;;;;;6400891;27;20074;-51
2023/05/02 08:47:12;;;;;;;1.25;0.55;;;22.20;48.50;;;;;;6400788;27;20051;-52
2023/05/02 08:50:16;;;;;;;0.50;0.40;;;22.50;48.70;;;;;;6400475;27;20042;-52
2023/05/02 08:53:18;;;;;;;1.02;0.50;;;22.50;48.60;;;;;;6401384;27;20039;-53
2023/05/02 08:56:25;;;;;;;0.88;0.60;;;22.40;48.50;;;;;;6382420;27;20035;-51
2023/05/02 08:59:27;;;;;;;1.02;0.50;;;22.50;48.60;;;;;;6400118;27;20066;-50
2023/05/02 09:02:49;;;;;;;0.32;0.32;;;22.30;48.40;;;;;;6401018;27;20041;-53
2023/05/02 09:05:53;;;;;;;0.50;0.50;;;22.50;48.50;;;;;;6365373;27;20054;-53
2023/05/02 09:08:59;;;;;;;0.40;0.40;;;22.50;48.50;;;;;;6400835;27;20046;-53
2023/05/02 09:12:00;;;;;;;0.40;0.40;;;22.60;48.60;;;;;;6399852;27;20050;-51
2023/05/02 09:15:11;;;;;;;0.47;0.45;;;22.50;48.60;;;;;;6399891;27;20043;-52
2023/05/02 09:18:19;;;;;;;1.38;0.40;;;22.40;48.60;;;;;;6400336;27;20458;-53
2023/05/02 09:21:22;;;;;;;0.40;0.40;;;22.60;48.70;;;;;;6400193;27;20404;-53
2023/05/02 09:24:25;;;;;;;0.60;0.50;;;22.50;48.70;;;;;;6365691;27;20531;-52
2023/05/02 09:27:28;;;;;;;0.40;0.40;;;22.70;48.80;;;;;;6399672;27;20042;-53
2023/05/02 09:30:36;;;;;;;0.40;0.30;;;22.70;48.80;;;;;;6399798;27;20067;-52
2023/05/02 09:33:38;;;;;;;0.73;0.40;;;22.50;48.70;;;;;;6399724;27;20042;-52
2023/05/02 09:36:41;;;;;;;0.32;0.32;;;22.40;48.70;;;;;;6381252;27;20042;-52
2023/05/02 09:40:04;;;;;;;0.22;0.22;;;22.70;48.80;;;;;;6381391;27;20043;-53
2023/05/02 09:43:14;;;;;;;0.88;0.68;;;22.80;48.80;;;;;;6384500;27;20058;-52
2023/05/02 09:46:22;;;;;;;0.88;0.60;;;22.70;48.70;;;;;;6381778;27;20035;-53
2023/05/02 09:49:40;;;;;;;0.68;0.50;;;22.70;48.50;;;;;;6399846;27;20041;-53
2023/05/02 09:53:00;;;;;;;0.45;0.40;;;22.60;48.50;;;;;;6399195;27;20153;-52
2023/05/02 09:56:03;;;;;;;0.98;0.47;;;22.60;48.40;;;;;;6379048;27;20034;-53
2023/05/02 09:59:13;;;;;;;0.50;0.40;;;22.70;48.30;;;;;;6364399;27;20482;-52
2023/05/02 10:02:15;;;;;;;0.57;0.40;;;22.70;48.10;;;;;;6381467;27;20118;-53
2023/05/02 10:05:19;;;;;;;0.40;0.22;;;22.70;48.00;;;;;;6399145;27;20083;-53
2023/05/02 10:08:26;;;;;;;1.77;0.30;;;22.90;48.00;;;;;;6399108;27;20039;-52
2023/05/02 10:11:32;;;;;;;0.35;0.30;;;22.90;47.80;;;;;;6399315;27;20038;-52
2023/05/02 10:14:40;;;;;;;0.40;0.30;;;22.90;47.60;;;;;;6398930;27;20046;-53
2023/05/02 10:17:49;;;;;;;0.73;0.30;;;22.60;47.30;;;;;;6381393;27;20035;-52
2023/05/02 10:20:55;;;;;;;0.52;0.32;;;22.80;47.10;;;;;;6398922;27;20088;-52
2023/05/02 10:23:58;;;;;;;0.63;0.28;;;22.80;46.90;;;;;;6398895;27;20035;-54
2023/05/02 10:27:01;;;;;;;0.20;0.20;;;22.90;46.80;;;;;;6398291;27;20034;-52
2023/05/02 10:30:05;;;;;;;0.22;0.22;;;23.00;46.70;;;;;;6380013;27;20050;-54
2023/05/02 10:33:08;;;;;;;0.40;0.20;;;23.10;46.70;;;;;;6398756;27;20062;-53
2023/05/02 10:36:12;;;;;;;0.20;0.20;;;22.80;46.50;;;;;;6398379;27;20062;-53
2023/05/02 10:39:13;;;;;;;0.50;0.30;;;22.80;46.40;;;;;;6398278;27;20039;-53
2023/05/02 10:42:17;;;;;;;0.35;0.35;;;23.00;46.40;;;;;;6398675;27;20488;-54
2023/05/02 10:45:34;;;;;;;0.20;0.20;;;23.00;46.30;;;;;;6398770;27;20043;-53
2023/05/02 10:48:37;;;;;;;0.77;0.30;;;23.10;46.30;;;;;;6383090;27;20039;-54
2023/05/02 10:51:40;;;;;;;0.63;0.50;;;23.10;46.30;;;;;;6398835;27;20035;-53
2023/05/02 10:54:42;;;;;;;0.30;0.30;;;23.10;46.30;;;;;;6380196;27;20055;-53
2023/05/02 10:57:56;;;;;;;;;;;23.10;46.20;;;;;;6398686;27;20042;-53
2023/05/02 11:01:25;;;;;;;0.57;0.50;;;23.10;46.30;;;;;;6397859;27;19923;-52
2023/05/02 11:04:51;;;;;;;0.35;0.30;;;23.10;46.20;;;;;;6398369;27;20038;-53
2023/05/02 11:08:22;;;;;;;0.25;0.25;;;23.00;46.10;;;;;;6396934;27;20051;-51
2023/05/02 11:11:39;;;;;;;0.22;0.22;;;23.10;46.00;;;;;;6383706;27;20043;-54
2023/05/02 11:14:48;;;;;;;1.02;0.55;;;23.20;46.00;;;;;;6379842;27;20050;-54
2023/05/02 11:18:00;;;;;;;0.20;0.20;;;23.30;45.90;;;;;;6379809;27;20041;-53
2023/05/02 11:21:31;;;;;;;0.70;0.38;;;22.90;45.70;;;;;;6398112;27;20042;-51
2023/05/02 11:24:41;;;;;;;0.20;0.20;;;23.20;46.00;;;;;;6368913;27;20030;-53
2023/05/02 11:27:48;;;;;;;0.20;0.20;;;23.20;45.70;;;;;;6380197;27;20498;-52
2023/05/02 11:30:49;;;;;;;0.30;0.30;;;23.30;45.60;;;;;;6397908;27;20035;-53
2023/05/02 11:33:55;;;;;;;0.52;0.30;;;23.30;45.40;;;;;;6398443;27;20042;-51
2023/05/02 11:36:57;;;;;;;0.28;0.20;;;23.30;45.30;;;;;;6397703;27;20048;-51
2023/05/02 11:40:10;;;;;;;0.77;0.20;;;23.40;45.10;;;;;;6400071;27;20039;-53
2023/05/02 11:43:14;;;;;;;0.20;0.20;;;23.20;44.70;;;;;;6401875;27;20402;-52
2023/05/02 11:46:19;;;;;;;0.35;0.30;;;23.30;44.70;;;;;;6383574;27;20422;-53
2023/05/02 11:49:21;;;;;;;2.63;0.20;;;23.30;45.10;;;;;;6401510;27;20043;-52
2023/05/02 11:52:23;;;;;;;0.50;0.20;;;23.20;44.40;;;;;;6401892;27;20045;-51
2023/05/02 11:55:25;;;;;;;0.22;0.20;;;23.30;44.30;;;;;;6401756;27;20111;-54
2023/05/02 11:58:32;;;;;;;0.20;0.20;;;23.30;44.20;;;;;;6401120;27;20039;-52
2023/05/02 12:01:34;;;;;;;0.40;0.20;;;24.00;44.40;;;;;;6383663;27;20397;-52
2023/05/02 12:04:42;;;;;;;0.40;0.30;;;23.40;44.20;;;;;;6401574;27;20395;-54
2023/05/02 12:07:47;;;;;;;1.25;0.20;;;23.60;44.20;;;;;;6383158;27;20491;-53
2023/05/02 12:10:51;;;;;;;0.50;0.35;;;23.60;44.00;;;;;;6399293;27;20039;-51
2023/05/02 12:13:54;;;;;;;0.20;0.20;;;23.70;44.00;;;;;;6401152;27;20147;-53
2023/05/02 12:16:57;;;;;;;0.32;0.30;;;23.70;44.00;;;;;;6401180;27;20034;-50
2023/05/02 12:19:59;;;;;;;0.80;0.40;;;23.70;43.90;;;;;;6401032;27;20047;-52
2023/05/02 12:23:01;;;;;;;0.35;0.22;;;23.50;44.50;;;;;;6400783;27;20043;-52
2023/05/02 12:26:16;;;;;;;0.60;0.30;;;23.70;44.00;;;;;;6401361;27;20048;-52
2023/05/02 12:29:18;;;;;;;2.35;0.40;;;23.50;43.80;;;;;;6382809;27;20548;-51
2023/05/02 12:32:28;;;;;;;0.95;0.60;;;23.70;43.90;;;;;;6400421;27;20034;-53
2023/05/02 12:35:30;;;;;;;0.90;0.50;;;23.70;44.00;;;;;;6400576;27;20043;-54
2023/05/02 12:38:32;;;;;;;0.95;0.40;;;23.70;44.00;;;;;;6382493;27;20046;-54
2023/05/02 12:41:36;;;;;;;0.20;0.20;;;23.80;44.00;;;;;;6400876;27;20516;-53
2023/05/02 12:44:46;;;;;;;0.50;0.30;;;23.80;43.70;;;;;;6400745;27;20482;-54
2023/05/02 12:47:48;;;;;;;0.20;0.20;;;23.80;43.60;;;;;;6382771;27;20054;-52
2023/05/02 12:50:53;;;;;;;0.52;0.20;;;23.80;43.40;;;;;;6400384;27;20041;-51
2023/05/02 12:53:55;;;;;;;0.60;0.20;;;23.90;43.30;;;;;;6364904;27;20493;-52
2023/05/02 12:56:57;;;;;;;0.40;0.30;;;24.00;43.30;;;;;;6400712;27;20049;-53
2023/05/02 12:59:59;;;;;;;1.05;0.30;;;23.90;43.20;;;;;;6400181;27;20050;-54
2023/05/02 13:03:01;;;;;;;0.77;0.50;;;24.00;43.30;;;;;;6400328;27;20035;-53
2023/05/02 13:06:03;;;;;;;0.60;0.47;;;24.00;43.30;;;;;;6400204;27;20401;-52
2023/05/02 13:09:08;;;;;;;0.57;0.32;;;24.00;43.30;;;;;;6399940;27;20038;-53
2023/05/02 13:12:09;;;;;;;0.73;0.47;;;24.10;43.30;;;;;;6400143;27;20042;-53
2023/05/02 13:15:12;;;;;;;0.40;0.30;;;24.10;43.20;;;;;;6400031;27;20039;-52
2023/05/02 13:18:14;;;;;;;0.30;0.30;;;24.10;43.00;;;;;;6399935;27;20478;-53
2023/05/02 13:21:18;;;;;;;0.73;0.32;;;24.10;43.00;;;;;;6399836;27;20175;-54
2023/05/02 13:24:19;;;;;;;0.38;0.30;;;24.10;43.00;;;;;;6400246;27;20046;-53
2023/05/02 13:27:23;;;;;;;0.45;0.40;;;24.00;42.90;;;;;;6399797;27;20038;-53
2023/05/02 13:30:25;;;;;;;0.50;0.38;;;24.20;43.00;;;;;;6381527;27;20500;-53
2023/05/02 13:33:26;;;;;;;0.75;0.30;;;24.20;43.00;;;;;;6399674;27;20039;-53
2023/05/02 13:36:28;;;;;;;1.00;0.40;;;24.00;43.00;;;;;;6398810;27;20050;-54
2023/05/02 13:39:29;;;;;;;0.70;0.38;;;24.20;43.20;;;;;;6399366;27;20077;-53
2023/05/02 13:42:31;;;;;;;0.77;0.52;;;24.20;43.10;;;;;;6399946;27;20087;-52
2023/05/02 13:45:34;;;;;;;0.65;0.50;;;24.30;43.00;;;;;;6399180;27;20091;-51
2023/05/02 13:48:36;;;;;;;0.60;0.40;;;24.10;42.80;;;;;;6399475;27;20047;-53
2023/05/02 13:51:37;;;;;;;0.50;0.30;;;24.10;42.80;;;;;;6399584;27;20038;-53
2023/05/02 13:54:39;;;;;;;0.30;0.30;;;24.20;42.80;;;;;;6399296;27;20096;-53
2023/05/02 13:57:41;;;;;;;0.35;0.30;;;24.20;42.80;;;;;;6399410;27;20050;-54
2023/05/02 14:00:43;;;;;;;0.77;0.60;;;24.20;42.70;;;;;;6398308;27;20071;-51
2023/05/02 14:03:47;;;;;;;0.82;0.50;;;24.20;42.70;;;;;;6398728;27;20035;-52
2023/05/02 14:06:48;;;;;;;0.60;0.40;;;24.30;42.70;;;;;;6399330;27;20481;-52
2023/05/02 14:09:50;;;;;;;0.85;0.43;;;24.30;42.60;;;;;;6399038;27;20039;-52
2023/05/02 14:12:52;;;;;;;0.43;0.40;;;24.30;42.50;;;;;;6399295;27;20466;-53
2023/05/02 14:15:57;;;;;;;1.00;0.40;;;24.40;42.40;;;;;;6399549;27;20038;-53
2023/05/02 14:18:59;;;;;;;3.17;0.63;;;24.30;42.20;;;;;;6398832;27;20480;-53
2023/05/02 14:22:00;;;;;;;1.05;0.50;;;24.40;42.20;;;;;;6346120;27;20070;-53
2023/05/02 14:25:02;;;;;;;1.05;0.40;;;24.40;42.20;;;;;;6399679;27;20041;-54
2023/05/02 14:28:04;;;;;;;0.70;0.50;;;24.30;42.10;;;;;;6398875;27;20493;-53
2023/05/02 14:31:06;;;;;;;0.52;0.40;;;24.40;42.00;;;;;;6380447;27;20440;-53
2023/05/02 14:34:08;;;;;;;0.55;0.43;;;24.40;41.90;;;;;;6399022;27;20051;-53
2023/05/02 14:37:10;;;;;;;1.05;0.52;;;24.40;41.90;;;;;;6345871;27;20046;-52
2023/05/02 14:40:14;;;;;;;0.93;0.43;;;24.50;41.80;;;;;;6399218;27;20038;-53
2023/05/02 14:43:15;;;;;;;0.70;0.20;;;24.50;41.60;;;;;;6398836;27;20490;-52
2023/05/02 14:46:18;;;;;;;0.20;0.20;;;24.40;41.60;;;;;;6398913;27;20054;-53
2023/05/02 14:49:19;;;;;;;0.30;0.22;;;24.40;41.30;;;;;;6398330;27;20038;-54
2023/05/02 14:52:20;;;;;;;0.90;0.30;;;24.50;41.30;;;;;;6398750;27;20035;-54
2023/05/02 14:55:22;;;;;;;1.20;0.80;;;24.50;41.20;;;;;;6398339;27;20384;-54
2023/05/02 14:58:24;;;;;;;0.40;0.30;;;24.40;41.20;;;;;;6398165;27;20058;-53
2023/05/02 15:01:26;;;;;;;0.50;0.30;;;24.50;41.30;;;;;;6398587;27;20497;-52
2023/05/02 15:04:28;;;;;;;0.75;0.38;;;24.30;41.30;;;;;;6398147;27;20045;-51
2023/05/02 15:07:30;;;;;;;0.40;0.30;;;24.50;41.30;;;;;;6398031;27;20508;-52
2023/05/02 15:10:35;;;;;;;0.60;0.57;;;24.50;41.30;;;;;;6398451;27;20030;-51
2023/05/02 15:13:37;;;;;;;0.82;0.40;;;24.60;41.10;;;;;;6398110;27;20038;-53
2023/05/02 15:16:44;;;;;;;0.82;0.30;;;24.60;40.90;;;;;;6379439;27;20043;-52
2023/05/02 15:19:48;;;;;;;0.32;0.32;;;24.50;40.80;;;;;;6397456;27;20505;-52
2023/05/02 15:22:50;;;;;;;1.20;0.45;;;24.50;40.80;;;;;;6397826;27;20039;-52
2023/05/02 15:25:51;;;;;;;0.30;0.20;;;24.70;40.80;;;;;;6397441;27;20569;-51
2023/05/02 15:28:52;;;;;;;0.88;0.30;;;24.70;40.90;;;;;;6397362;27;20081;-52
2023/05/02 15:31:56;;;;;;;0.73;0.40;;;24.70;40.50;;;;;;6397761;27;20378;-51
2023/05/02 15:34:58;;;;;;;0.40;0.40;;;24.70;40.40;;;;;;6397820;27;20134;-52
2023/05/02 15:37:59;;;;;;;0.30;0.28;;;24.70;40.40;;;;;;6397361;27;20046;-52
2023/05/02 15:41:01;;;;;;;0.77;0.28;;;24.70;40.40;;;;;;6397733;27;20115;-52
2023/05/02 15:44:02;;;;;;;0.35;0.32;;;24.70;40.30;;;;;;6397844;27;20050;-52
2023/05/02 15:47:05;;;;;;;0.20;0.20;;;24.70;40.40;;;;;;6397957;27;20114;-53
2023/05/02 15:50:07;;;;;;;0.20;0.20;;;24.70;40.40;;;;;;6397601;27;20043;-52
2023/05/02 15:53:08;;;;;;;0.73;0.20;;;24.70;40.40;;;;;;6379125;27;20047;-52
2023/05/02 15:56:11;;;;;;;0.40;0.38;;;24.50;40.40;;;;;;6397947;27;20031;-52
2023/05/02 15:59:12;;;;;;;0.25;0.20;;;24.60;40.50;;;;;;6397323;27;20046;-52
2023/05/02 16:02:14;;;;;;;0.30;0.30;;;24.50;40.50;;;;;;6397187;27;20466;-51
2023/05/02 16:05:16;;;;;;;0.25;0.20;;;24.50;40.50;;;;;;6396769;27;20039;-55
2023/05/02 16:08:17;;;;;;;0.30;0.30;;;24.50;40.50;;;;;;6397512;27;20087;-53
2023/05/02 16:11:19;;;;;;;0.20;0.20;;;24.90;40.70;;;;;;6397834;27;20057;-51